Aviation Digital Data Service (ADDS)

Output produced by METARs form (0133 UTC 26 May 2015)
found at http://aviationweather.gov/adds/metars/
 
KBOS 252321Z 2600/2706 20014KT P6SM BKN200 
     FM270500 22012KT P6SM OVC250